Time;durP1;ratioP1;P1;durP2;ratioP2;P2;SDS_P1;SDS_P2;PMS_P1;PMS_P2;Temp;Humidity;BMP_temperature;BMP_pressure;BME280_temperature;BME280_humidity;BME280_pressure;Samples;Min_cycle;Max_cycle;Signal;HPM_P1;HPM_P2
2022/10/15 00:02:06;;;;;;;6.93;4.30;;;;;;;;;;5074130;28;20028;-64
2022/10/15 00:04:31;;;;;;;7.03;4.07;;;;;;;;;;5069657;28;20271;-64
2022/10/15 00:06:56;;;;;;;13.52;4.43;;;;;;;;;;5069185;28;20024;-64
2022/10/15 00:09:22;;;;;;;6.67;4.07;;;;;;;;;;5083145;28;20039;-65
2022/10/15 00:11:47;;;;;;;7.97;3.92;;;;;;;;;;5087598;28;20274;-65
2022/10/15 00:14:12;;;;;;;8.30;4.70;;;;;;;;;;5071655;28;20024;-65
2022/10/15 00:16:37;;;;;;;7.67;4.00;;;;;;;;;;5075721;28;20271;-64
2022/10/15 00:19:02;;;;;;;5.25;4.30;;;;;;;;;;5068928;28;20304;-64
2022/10/15 00:21:28;;;;;;;6.85;4.32;;;;;;;;;;5084434;28;20024;-64
2022/10/15 00:23:53;;;;;;;7.97;4.18;;;;;;;;;;5072324;28;20016;-63
2022/10/15 00:26:20;;;;;;;8.13;4.78;;;;;;;;;;5075760;28;20025;-65
2022/10/15 00:28:45;;;;;;;8.88;4.22;;;;;;;;;;5082920;28;20029;-63
2022/10/15 00:31:15;;;;;;;11.68;3.78;;;;;;;;;;5077669;28;20024;-64
2022/10/15 00:33:40;;;;;;;11.77;5.20;;;;;;;;;;5070631;28;20020;-63
2022/10/15 00:36:13;;;;;;;6.75;2.70;;;;;;;;;;5090806;28;20024;-64
2022/10/15 00:38:38;;;;;;;10.30;4.32;;;;;;;;;;5071897;28;20025;-64
2022/10/15 00:41:04;;;;;;;11.40;4.03;;;;;;;;;;5086297;28;20093;-64
2022/10/15 00:43:39;;;;;;;7.32;3.97;;;;;;;;;;5082279;28;20021;-64
2022/10/15 00:46:05;;;;;;;9.40;4.75;;;;;;;;;;5070502;28;20059;-64
2022/10/15 00:48:30;;;;;;;8.50;4.63;;;;;;;;;;5075146;28;20266;-65
2022/10/15 00:50:56;;;;;;;8.48;5.00;;;;;;;;;;5083459;28;20043;-64
2022/10/15 00:53:21;;;;;;;9.60;5.15;;;;;;;;;;5087613;28;20036;-63
2022/10/15 00:55:47;;;;;;;8.88;5.35;;;;;;;;;;5070205;28;20493;-64
2022/10/15 00:58:14;;;;;;;12.90;5.70;;;;;;;;;;5075291;28;20046;-64
2022/10/15 01:00:39;;;;;;;9.45;5.90;;;;;;;;;;5069120;28;20074;-64
2022/10/15 01:03:04;;;;;;;16.42;7.10;;;;;;;;;;5070485;28;20036;-64
2022/10/15 01:05:30;;;;;;;13.80;7.30;;;;;;;;;;5069156;28;20401;-66
2022/10/15 01:07:55;;;;;;;17.45;8.02;;;;;;;;;;5071241;28;20019;-64
2022/10/15 01:10:21;;;;;;;14.03;8.30;;;;;;;;;;5073964;28;20016;-64
2022/10/15 01:12:55;;;;;;;13.25;7.10;;;;;;;;;;5072357;28;20278;-65
2022/10/15 01:15:38;;;;;;;15.48;7.72;;;;;;;;;;5073226;28;20115;-64
2022/10/15 01:18:09;;;;;;;17.02;8.88;;;;;;;;;;5072372;28;20078;-64
2022/10/15 01:20:50;;;;;;;20.65;10.68;;;;;;;;;;5081537;28;20020;-64
2022/10/15 01:23:19;;;;;;;23.38;9.80;;;;;;;;;;5073900;28;20043;-64
2022/10/15 01:25:51;;;;;;;20.80;9.80;;;;;;;;;;5073427;28;20480;-63
2022/10/15 01:28:16;;;;;;;52.80;23.83;;;;;;;;;;5072169;28;20017;-63
2022/10/15 01:30:45;;;;;;;52.55;23.52;;;;;;;;;;5080748;28;20016;-64
2022/10/15 01:33:19;;;;;;;19.75;9.40;;;;;;;;;;5074985;28;20012;-65
2022/10/15 01:35:52;;;;;;;15.93;8.45;;;;;;;;;;5075429;28;20024;-64
2022/10/15 01:38:23;;;;;;;14.85;8.65;;;;;;;;;;5068480;28;20021;-64
2022/10/15 01:40:51;;;;;;;18.95;7.85;;;;;;;;;;5078563;28;20097;-64
2022/10/15 01:43:21;;;;;;;28.90;9.52;;;;;;;;;;5079533;28;20012;-65
2022/10/15 01:45:55;;;;;;;16.08;8.73;;;;;;;;;;5069676;28;20379;-63
2022/10/15 01:48:21;;;;;;;17.58;9.05;;;;;;;;;;5069654;28;20483;-63
2022/10/15 01:50:49;;;;;;;15.45;7.93;;;;;;;;;;5071773;28;20028;-63
2022/10/15 01:53:16;;;;;;;21.88;10.70;;;;;;;;;;5074177;28;20022;-63
2022/10/15 01:55:43;;;;;;;24.35;10.80;;;;;;;;;;5070391;28;20217;-64
2022/10/15 01:58:09;;;;;;;29.27;14.95;;;;;;;;;;5070239;28;20073;-63
2022/10/15 02:00:35;;;;;;;32.45;16.80;;;;;;;;;;5070610;28;20089;-64
2022/10/15 02:03:00;;;;;;;25.17;14.77;;;;;;;;;;5081272;28;20477;-65
2022/10/15 02:05:29;;;;;;;20.05;11.45;;;;;;;;;;5069194;28;20255;-63
2022/10/15 02:07:54;;;;;;;23.73;11.88;;;;;;;;;;5073721;28;20044;-65
2022/10/15 02:10:37;;;;;;;32.67;15.98;;;;;;;;;;5070312;28;20506;-64
2022/10/15 02:13:02;;;;;;;25.60;13.77;;;;;;;;;;5068826;28;20032;-65
2022/10/15 02:15:35;;;;;;;17.93;9.60;;;;;;;;;;5077511;28;20021;-63
2022/10/15 02:18:15;;;;;;;18.40;9.25;;;;;;;;;;5078110;28;20289;-64
2022/10/15 02:20:40;;;;;;;;;;;;;;;;;;5084289;28;20047;-64
2022/10/15 02:23:14;;;;;;;21.70;8.70;;;;;;;;;;5072623;28;19975;-64
2022/10/15 02:25:40;;;;;;;20.63;10.10;;;;;;;;;;5070966;28;20012;-64
2022/10/15 02:28:07;;;;;;;21.25;9.30;;;;;;;;;;5069074;28;20090;-64
2022/10/15 02:30:33;;;;;;;19.15;9.52;;;;;;;;;;5073637;28;20023;-64
2022/10/15 02:32:59;;;;;;;21.08;9.60;;;;;;;;;;5073008;28;20021;-64
2022/10/15 02:35:25;;;;;;;20.25;10.02;;;;;;;;;;5081342;28;20077;-64
2022/10/15 02:37:51;;;;;;;21.48;10.77;;;;;;;;;;5087265;28;20054;-64
2022/10/15 02:40:17;;;;;;;19.73;10.43;;;;;;;;;;5075548;28;20477;-64
2022/10/15 02:42:43;;;;;;;21.92;9.93;;;;;;;;;;5072529;28;20031;-64
2022/10/15 02:45:08;;;;;;;19.03;9.30;;;;;;;;;;5070974;28;20032;-65
2022/10/15 02:47:33;;;;;;;18.50;10.23;;;;;;;;;;5077852;28;20273;-65
2022/10/15 02:49:59;;;;;;;17.17;9.60;;;;;;;;;;5078689;28;20473;-64
2022/10/15 02:52:24;;;;;;;19.17;10.05;;;;;;;;;;5079695;28;20274;-63
2022/10/15 02:54:49;;;;;;;22.93;9.60;;;;;;;;;;5077337;28;20532;-64
2022/10/15 02:57:14;;;;;;;24.30;9.97;;;;;;;;;;5078605;28;20281;-64
2022/10/15 02:59:40;;;;;;;19.27;10.13;;;;;;;;;;5076521;28;20836;-63
2022/10/15 03:02:06;;;;;;;23.00;10.25;;;;;;;;;;5081352;28;20558;-64
2022/10/15 03:04:31;;;;;;;20.97;10.73;;;;;;;;;;5078119;28;20047;-64
2022/10/15 03:06:56;;;;;;;22.93;10.93;;;;;;;;;;5081345;28;20274;-65
2022/10/15 03:09:21;;;;;;;22.05;10.60;;;;;;;;;;5071649;28;20271;-63
2022/10/15 03:11:46;;;;;;;22.90;10.50;;;;;;;;;;5070927;28;20028;-65
2022/10/15 03:14:12;;;;;;;30.77;11.30;;;;;;;;;;5074800;28;20411;-64
2022/10/15 03:16:37;;;;;;;27.50;12.73;;;;;;;;;;5090076;28;20056;-65
2022/10/15 03:19:02;;;;;;;28.93;11.90;;;;;;;;;;5084313;28;20476;-64
2022/10/15 03:21:29;;;;;;;28.07;13.23;;;;;;;;;;5072829;28;20279;-64
2022/10/15 03:23:55;;;;;;;31.30;12.32;;;;;;;;;;5070789;28;20320;-65
2022/10/15 03:26:20;;;;;;;29.33;13.15;;;;;;;;;;5073676;28;20024;-64
2022/10/15 03:28:45;;;;;;;29.93;14.10;;;;;;;;;;5068100;28;20461;-64
2022/10/15 03:31:12;;;;;;;30.20;13.03;;;;;;;;;;5084383;28;20361;-64
2022/10/15 03:33:37;;;;;;;34.63;13.55;;;;;;;;;;5066665;28;20357;-65
2022/10/15 03:36:02;;;;;;;25.00;11.93;;;;;;;;;;5072679;28;20528;-63
2022/10/15 03:38:28;;;;;;;30.83;13.32;;;;;;;;;;5085761;28;20334;-64
2022/10/15 03:40:53;;;;;;;23.73;12.27;;;;;;;;;;5075138;28;20020;-64
2022/10/15 03:43:18;;;;;;;32.40;13.43;;;;;;;;;;5085086;28;20017;-63
2022/10/15 03:45:43;;;;;;;28.23;12.73;;;;;;;;;;5067842;28;20829;-65
2022/10/15 03:48:08;;;;;;;29.57;13.17;;;;;;;;;;5073631;28;20331;-64
2022/10/15 03:50:33;;;;;;;26.50;13.00;;;;;;;;;;5081127;28;20349;-66
2022/10/15 03:53:01;;;;;;;28.83;12.93;;;;;;;;;;5072731;28;20445;-65
2022/10/15 03:55:26;;;;;;;27.95;12.10;;;;;;;;;;5076560;28;20275;-64
2022/10/15 03:57:51;;;;;;;27.37;11.57;;;;;;;;;;5076902;28;20167;-64
2022/10/15 04:00:16;;;;;;;33.20;10.63;;;;;;;;;;5065156;28;20287;-65
2022/10/15 04:02:42;;;;;;;26.80;12.05;;;;;;;;;;5064648;28;20378;-63
2022/10/15 04:05:07;;;;;;;21.75;9.73;;;;;;;;;;5067751;28;20066;-65
2022/10/15 04:07:32;;;;;;;22.10;10.20;;;;;;;;;;5069148;28;20024;-64
2022/10/15 04:09:57;;;;;;;22.43;10.93;;;;;;;;;;5081609;28;20020;-64
2022/10/15 04:12:23;;;;;;;22.60;11.27;;;;;;;;;;5081364;28;20788;-65
2022/10/15 04:14:48;;;;;;;20.35;10.20;;;;;;;;;;5068822;28;20027;-64
2022/10/15 04:17:13;;;;;;;34.80;11.63;;;;;;;;;;5069005;28;20520;-64
2022/10/15 04:19:38;;;;;;;26.88;11.13;;;;;;;;;;5086047;28;20118;-63
2022/10/15 04:22:04;;;;;;;24.70;11.20;;;;;;;;;;5080862;28;20151;-64
2022/10/15 04:24:29;;;;;;;22.67;10.43;;;;;;;;;;5077103;28;20323;-64
2022/10/15 04:26:54;;;;;;;24.23;11.27;;;;;;;;;;5071673;28;20081;-63
2022/10/15 04:29:19;;;;;;;23.87;11.53;;;;;;;;;;5070497;28;20708;-64
2022/10/15 04:31:44;;;;;;;23.90;11.03;;;;;;;;;;5072117;28;20270;-64
2022/10/15 04:34:09;;;;;;;19.97;10.63;;;;;;;;;;5068044;28;20768;-64
2022/10/15 04:36:35;;;;;;;23.33;10.53;;;;;;;;;;5076281;28;20285;-64
2022/10/15 04:39:00;;;;;;;22.40;9.57;;;;;;;;;;5076577;28;20330;-65
2022/10/15 04:41:25;;;;;;;29.13;11.60;;;;;;;;;;5079125;28;20396;-64
2022/10/15 04:43:51;;;;;;;22.38;10.65;;;;;;;;;;5076254;28;20549;-63
2022/10/15 04:46:16;;;;;;;22.93;10.30;;;;;;;;;;5073342;28;20058;-64
2022/10/15 04:48:41;;;;;;;25.08;11.35;;;;;;;;;;5070866;28;20263;-63
2022/10/15 04:51:07;;;;;;;26.37;12.00;;;;;;;;;;5067457;28;20055;-64
2022/10/15 04:53:33;;;;;;;26.77;11.98;;;;;;;;;;5070973;28;20282;-64
2022/10/15 04:55:59;;;;;;;28.55;9.77;;;;;;;;;;5079164;28;20073;-65
2022/10/15 04:58:24;;;;;;;21.73;9.55;;;;;;;;;;5064036;28;20426;-65
2022/10/15 05:00:49;;;;;;;27.87;11.47;;;;;;;;;;5067403;28;20477;-64
2022/10/15 05:03:14;;;;;;;25.07;10.93;;;;;;;;;;5071842;28;20362;-64
2022/10/15 05:05:39;;;;;;;27.83;12.23;;;;;;;;;;5066735;28;20270;-64
2022/10/15 05:08:05;;;;;;;23.80;10.73;;;;;;;;;;5073800;28;20366;-64
2022/10/15 05:10:30;;;;;;;24.50;10.80;;;;;;;;;;5071746;28;20773;-64
2022/10/15 05:12:55;;;;;;;33.38;11.25;;;;;;;;;;5069450;28;20476;-64
2022/10/15 05:15:21;;;;;;;20.48;10.93;;;;;;;;;;5072192;28;20373;-64
2022/10/15 05:17:46;;;;;;;20.23;9.40;;;;;;;;;;5077937;28;20115;-64
2022/10/15 05:20:11;;;;;;;21.93;10.73;;;;;;;;;;5076668;28;20602;-64
2022/10/15 05:22:36;;;;;;;24.37;11.10;;;;;;;;;;5084102;28;20282;-64
2022/10/15 05:25:01;;;;;;;22.47;10.47;;;;;;;;;;5067618;28;20712;-64
2022/10/15 05:27:27;;;;;;;23.48;10.30;;;;;;;;;;5076272;28;20281;-64
2022/10/15 05:29:52;;;;;;;19.02;8.55;;;;;;;;;;5068793;28;20480;-64
2022/10/15 05:32:17;;;;;;;20.90;9.60;;;;;;;;;;5079341;28;20032;-64
2022/10/15 05:34:42;;;;;;;25.13;9.90;;;;;;;;;;5074725;28;20036;-64
2022/10/15 05:37:07;;;;;;;19.73;9.47;;;;;;;;;;5074978;28;20821;-64
2022/10/15 05:39:32;;;;;;;22.87;9.50;;;;;;;;;;5073583;28;20278;-64
2022/10/15 05:41:57;;;;;;;33.37;10.77;;;;;;;;;;5065897;28;20635;-64
2022/10/15 05:44:23;;;;;;;22.33;11.27;;;;;;;;;;5078814;28;20338;-64
2022/10/15 05:46:48;;;;;;;21.60;10.80;;;;;;;;;;5080862;28;20265;-64
2022/10/15 05:49:13;;;;;;;20.47;10.70;;;;;;;;;;5079393;28;20047;-64
2022/10/15 05:51:38;;;;;;;22.20;9.45;;;;;;;;;;5073290;28;20323;-64
2022/10/15 05:54:04;;;;;;;21.20;11.13;;;;;;;;;;5072657;28;20166;-64
2022/10/15 05:56:29;;;;;;;25.35;10.82;;;;;;;;;;5068772;28;20290;-64
2022/10/15 05:58:54;;;;;;;25.67;11.40;;;;;;;;;;5068086;28;20503;-64
2022/10/15 06:01:20;;;;;;;19.05;10.27;;;;;;;;;;5079269;28;20373;-64
2022/10/15 06:03:45;;;;;;;27.98;11.15;;;;;;;;;;5090144;28;20015;-64
2022/10/15 06:06:17;;;;;;;22.90;9.85;;;;;;;;;;5063221;28;20054;-64
2022/10/15 06:08:43;;;;;;;20.33;9.98;;;;;;;;;;5072538;28;20391;-64
2022/10/15 06:11:08;;;;;;;20.23;10.45;;;;;;;;;;5069302;28;20126;-64
2022/10/15 06:13:33;;;;;;;20.10;10.05;;;;;;;;;;5068042;28;20025;-64
2022/10/15 06:15:59;;;;;;;26.23;11.30;;;;;;;;;;5070192;28;20020;-64
2022/10/15 06:18:24;;;;;;;24.47;11.37;;;;;;;;;;5072314;28;20020;-64
2022/10/15 06:20:50;;;;;;;21.58;8.77;;;;;;;;;;5070420;28;20320;-64
2022/10/15 06:23:15;;;;;;;19.70;9.30;;;;;;;;;;5071660;28;20025;-64
2022/10/15 06:25:40;;;;;;;18.73;7.57;;;;;;;;;;5067999;28;20017;-64
2022/10/15 06:28:06;;;;;;;22.50;10.20;;;;;;;;;;5079075;28;20020;-64
2022/10/15 06:30:31;;;;;;;17.63;8.90;;;;;;;;;;5072991;28;20275;-64
2022/10/15 06:32:57;;;;;;;17.77;8.80;;;;;;;;;;5071307;28;20043;-64
2022/10/15 06:35:22;;;;;;;17.75;9.05;;;;;;;;;;5072835;28;20025;-64
2022/10/15 06:37:47;;;;;;;15.63;8.10;;;;;;;;;;5071295;28;20025;-64
2022/10/15 06:40:13;;;;;;;12.25;6.75;;;;;;;;;;5072360;28;20024;-64
2022/10/15 06:42:38;;;;;;;18.25;9.18;;;;;;;;;;5070393;28;20107;-64
2022/10/15 06:45:04;;;;;;;15.10;8.18;;;;;;;;;;5067483;28;20016;-64
2022/10/15 06:47:29;;;;;;;15.30;8.00;;;;;;;;;;5079846;28;20020;-64
2022/10/15 06:49:54;;;;;;;21.03;8.03;;;;;;;;;;5074949;28;20038;-64
2022/10/15 06:52:19;;;;;;;13.13;6.67;;;;;;;;;;5072989;28;20719;-64
2022/10/15 06:54:45;;;;;;;20.83;7.47;;;;;;;;;;5069105;28;20314;-64
2022/10/15 06:57:10;;;;;;;16.42;7.32;;;;;;;;;;5075843;28;20281;-64
2022/10/15 06:59:35;;;;;;;12.87;6.57;;;;;;;;;;5066384;28;20025;-64
2022/10/15 07:02:00;;;;;;;11.63;6.30;;;;;;;;;;5067307;28;20348;-64
2022/10/15 07:04:25;;;;;;;13.80;7.40;;;;;;;;;;5077266;28;21028;-64
2022/10/15 07:06:51;;;;;;;13.50;6.73;;;;;;;;;;5070162;28;20285;-64
2022/10/15 07:09:16;;;;;;;14.00;5.78;;;;;;;;;;5067798;28;20579;-64
2022/10/15 07:11:41;;;;;;;6.82;3.25;;;;;;;;;;5072482;28;20182;-64
2022/10/15 07:14:06;;;;;;;6.23;3.83;;;;;;;;;;5064058;28;20497;-64
2022/10/15 07:16:31;;;;;;;11.87;4.90;;;;;;;;;;5069131;28;20032;-64
2022/10/15 07:18:56;;;;;;;7.55;4.72;;;;;;;;;;5068119;28;20329;-64
2022/10/15 07:21:22;;;;;;;10.65;4.60;;;;;;;;;;5087093;28;20497;-64
2022/10/15 07:23:47;;;;;;;11.13;5.22;;;;;;;;;;5078263;28;20075;-64
2022/10/15 07:26:12;;;;;;;11.52;4.95;;;;;;;;;;5069901;28;20055;-64
2022/10/15 07:28:37;;;;;;;7.90;4.90;;;;;;;;;;5070058;28;20703;-64
2022/10/15 07:31:04;;;;;;;12.27;4.70;;;;;;;;;;5068878;28;20480;-64
2022/10/15 07:33:30;;;;;;;9.23;4.90;;;;;;;;;;5073991;28;20374;-64
2022/10/15 07:35:55;;;;;;;2.13;1.65;;;;;;;;;;5081952;28;20357;-64
2022/10/15 07:38:20;;;;;;;6.63;3.67;;;;;;;;;;5086360;28;20036;-64
2022/10/15 07:40:45;;;;;;;10.93;4.35;;;;;;;;;;5078084;28;20304;-64
2022/10/15 07:43:10;;;;;;;8.70;4.97;;;;;;;;;;5070352;28;20047;-64
2022/10/15 07:45:36;;;;;;;10.32;4.03;;;;;;;;;;5070448;28;20403;-64
2022/10/15 07:48:01;;;;;;;9.43;3.77;;;;;;;;;;5079751;28;20173;-64
2022/10/15 07:50:26;;;;;;;4.68;2.15;;;;;;;;;;5081776;28;20300;-64
2022/10/15 07:52:52;;;;;;;12.35;3.38;;;;;;;;;;5067217;28;20032;-64
2022/10/15 07:55:17;;;;;;;6.55;3.40;;;;;;;;;;5072625;28;20063;-64
2022/10/15 07:57:42;;;;;;;4.82;2.40;;;;;;;;;;5068902;28;20084;-64
2022/10/15 08:00:07;;;;;;;4.80;2.13;;;;;;;;;;5077321;28;20023;-64
2022/10/15 08:02:33;;;;;;;4.25;2.00;;;;;;;;;;5069222;28;20024;-64
2022/10/15 08:04:58;;;;;;;4.82;1.58;;;;;;;;;;5082837;28;20468;-64
2022/10/15 08:07:23;;;;;;;4.40;1.87;;;;;;;;;;5078377;28;20012;-64
2022/10/15 08:09:48;;;;;;;8.13;2.57;;;;;;;;;;5076355;28;20358;-64
2022/10/15 08:12:13;;;;;;;4.10;2.30;;;;;;;;;;5072744;28;20270;-64
2022/10/15 08:14:39;;;;;;;1.60;0.98;;;;;;;;;;5079451;28;20282;-64
2022/10/15 08:17:04;;;;;;;11.88;1.15;;;;;;;;;;5069997;28;20036;-64
2022/10/15 08:19:30;;;;;;;2.10;1.13;;;;;;;;;;5082028;28;20044;-64
2022/10/15 08:21:55;;;;;;;2.05;1.15;;;;;;;;;;5081565;28;20056;-64
2022/10/15 08:24:20;;;;;;;4.25;1.60;;;;;;;;;;5079531;28;20571;-64
2022/10/15 08:26:46;;;;;;;2.03;1.23;;;;;;;;;;5083536;28;20099;-64
2022/10/15 08:29:11;;;;;;;5.17;1.03;;;;;;;;;;5073683;28;20273;-64
2022/10/15 08:31:37;;;;;;;2.55;1.40;;;;;;;;;;5072831;28;20271;-64
2022/10/15 08:34:03;;;;;;;7.38;1.20;;;;;;;;;;5070099;28;20290;-64
2022/10/15 08:36:28;;;;;;;1.23;0.90;;;;;;;;;;5071281;28;20056;-64
2022/10/15 08:38:53;;;;;;;1.37;0.80;;;;;;;;;;5068304;28;20282;-64
2022/10/15 08:41:21;;;;;;;1.93;1.03;;;;;;;;;;5072476;28;20271;-64
2022/10/15 08:43:47;;;;;;;5.07;1.00;;;;;;;;;;5069793;28;20343;-64
2022/10/15 08:46:17;;;;;;;0.82;0.47;;;;;;;;;;5067664;28;20021;-65
2022/10/15 08:48:44;;;;;;;1.50;0.77;;;;;;;;;;5075976;28;20024;-64
2022/10/15 08:51:17;;;;;;;0.77;0.47;;;;;;;;;;5071713;28;20444;-64
2022/10/15 08:53:48;;;;;;;1.52;0.70;;;;;;;;;;5068916;28;20146;-64
2022/10/15 08:56:13;;;;;;;;;;;;;;;;;;5071804;28;20048;-64
2022/10/15 08:59:08;;;;;;;0.40;0.20;;;;;;;;;;5071101;28;19955;-64
2022/10/15 09:01:36;;;;;;;9.80;0.90;;;;;;;;;;5048260;28;20330;-64
2022/10/15 09:04:06;;;;;;;2.90;0.30;;;;;;;;;;5070660;28;20025;-64
2022/10/15 09:06:40;;;;;;;2.10;0.70;;;;;;;;;;5068773;28;20032;-64
2022/10/15 09:09:05;;;;;;;1.75;1.05;;;;;;;;;;5070877;28;20025;-64
2022/10/15 09:11:33;;;;;;;1.13;0.60;;;;;;;;;;5071010;28;20020;-64
2022/10/15 09:13:59;;;;;;;0.88;0.32;;;;;;;;;;5070950;28;20016;-65
2022/10/15 09:16:26;;;;;;;0.95;0.82;;;;;;;;;;5068528;28;20020;-64
2022/10/15 09:18:52;;;;;;;2.38;0.70;;;;;;;;;;5070621;28;20028;-64
2022/10/15 09:21:19;;;;;;;2.08;0.95;;;;;;;;;;5070157;28;20016;-64
2022/10/15 09:23:44;;;;;;;3.17;0.80;;;;;;;;;;5086244;28;20039;-64
2022/10/15 09:26:28;;;;;;;0.82;0.60;;;;;;;;;;5066468;28;20489;-64
2022/10/15 09:28:53;;;;;;;1.23;0.50;;;;;;;;;;5068748;28;20069;-65
2022/10/15 09:31:20;;;;;;;3.85;0.40;;;;;;;;;;5069074;28;20489;-64
2022/10/15 09:34:00;;;;;;;4.65;0.60;;;;;;;;;;5067776;28;20029;-64
2022/10/15 09:36:35;;;;;;;0.38;0.30;;;;;;;;;;5065156;28;20439;-64
2022/10/15 09:39:03;;;;;;;0.30;0.30;;;;;;;;;;5071906;28;20428;-64
2022/10/15 09:41:31;;;;;;;0.30;0.20;;;;;;;;;;5068265;28;20020;-64
2022/10/15 09:43:58;;;;;;;0.40;0.30;;;;;;;;;;5072394;28;20026;-64
2022/10/15 09:46:23;;;;;;;3.15;0.50;;;;;;;;;;5068763;28;20028;-64
2022/10/15 09:49:02;;;;;;;0.20;0.10;;;;;;;;;;5068167;28;20020;-64
2022/10/15 09:51:33;;;;;;;2.70;0.80;;;;;;;;;;5069186;28;20285;-65
2022/10/15 09:54:02;;;;;;;1.65;0.30;;;;;;;;;;5070320;28;20077;-64
2022/10/15 09:56:32;;;;;;;0.30;0.20;;;;;;;;;;5070475;28;20515;-64
2022/10/15 09:58:57;;;;;;;;;;;;;;;;;;5059234;28;20432;-65
2022/10/15 10:01:27;;;;;;;12.38;0.50;;;;;;;;;;5051639;28;20323;-65
2022/10/15 10:03:53;;;;;;;0.82;0.30;;;;;;;;;;5060811;28;20017;-65
2022/10/15 10:06:19;;;;;;;0.63;0.32;;;;;;;;;;5064851;28;20358;-65
2022/10/15 10:08:49;;;;;;;0.45;0.28;;;;;;;;;;5070240;28;20109;-65
2022/10/15 10:11:14;;;;;;;0.57;0.40;;;;;;;;;;5069646;28;20393;-65
2022/10/15 10:14:00;;;;;;;1.83;0.60;;;;;;;;;;5071126;28;20024;-64
2022/10/15 10:16:25;;;;;;;0.70;0.50;;;;;;;;;;5068702;28;20263;-65
2022/10/15 10:19:01;;;;;;;1.10;0.63;;;;;;;;;;5069564;28;20495;-65
2022/10/15 10:21:30;;;;;;;0.57;0.28;;;;;;;;;;5064026;28;20032;-65
2022/10/15 10:23:56;;;;;;;2.35;0.40;;;;;;;;;;5079622;28;20009;-64
2022/10/15 10:26:22;;;;;;;0.47;0.40;;;;;;;;;;5083578;28;20062;-65
2022/10/15 10:28:56;;;;;;;0.85;0.47;;;;;;;;;;5058065;28;20053;-65
2022/10/15 10:31:29;;;;;;;3.72;0.65;;;;;;;;;;5073152;28;20035;-65
2022/10/15 10:33:54;;;;;;;0.20;0.20;;;;;;;;;;5066259;28;20043;-65
2022/10/15 10:36:20;;;;;;;2.10;0.50;;;;;;;;;;5067487;28;20472;-65
2022/10/15 10:38:54;;;;;;;0.30;0.22;;;;;;;;;;5069555;28;20070;-65
2022/10/15 10:41:19;;;;;;;0.20;0.20;;;;;;;;;;5082279;28;20027;-65
2022/10/15 10:43:54;;;;;;;0.33;0.20;;;;;;;;;;5073904;28;20024;-65
2022/10/15 10:46:21;;;;;;;1.30;0.60;;;;;;;;;;5087192;28;20262;-64
2022/10/15 10:48:50;;;;;;;2.80;0.30;;;;;;;;;;5067388;28;20477;-64
2022/10/15 10:51:16;;;;;;;1.17;0.52;;;;;;;;;;5067975;28;20029;-65
2022/10/15 10:53:52;;;;;;;2.28;0.73;;;;;;;;;;5077873;28;20023;-65
2022/10/15 10:56:21;;;;;;;0.20;0.20;;;;;;;;;;5071341;28;20020;-65
2022/10/15 10:58:47;;;;;;;0.55;0.30;;;;;;;;;;5072948;28;20019;-65
2022/10/15 11:01:13;;;;;;;7.15;0.50;;;;;;;;;;5070140;28;20502;-65
2022/10/15 11:03:41;;;;;;;1.05;0.30;;;;;;;;;;5073334;28;20100;-65
2022/10/15 11:06:28;;;;;;;0.40;0.20;;;;;;;;;;5077423;28;20372;-65
2022/10/15 11:08:58;;;;;;;0.15;0.15;;;;;;;;;;5078980;28;20047;-65
2022/10/15 11:11:32;;;;;;;2.97;0.43;;;;;;;;;;5078697;28;20448;-65
2022/10/15 11:14:06;;;;;;;0.98;0.50;;;;;;;;;;5073305;28;20017;-65
2022/10/15 11:16:37;;;;;;;8.82;0.52;;;;;;;;;;5069050;28;20028;-64
2022/10/15 11:19:24;;;;;;;1.95;0.50;;;;;;;;;;5068348;28;20113;-65
2022/10/15 11:22:01;;;;;;;4.95;0.55;;;;;;;;;;5068681;28;20047;-65
2022/10/15 11:24:30;;;;;;;2.50;0.45;;;;;;;;;;5066154;28;20468;-65
2022/10/15 11:27:21;;;;;;;1.27;0.43;;;;;;;;;;5072873;28;20023;-65
2022/10/15 11:29:52;;;;;;;0.52;0.20;;;;;;;;;;5073358;28;20028;-65
2022/10/15 11:32:23;;;;;;;3.10;0.40;;;;;;;;;;5072733;28;20021;-64
2022/10/15 11:35:16;;;;;;;0.22;0.22;;;;;;;;;;5084398;22;20292;-65
2022/10/15 11:38:04;;;;;;;4.15;0.55;;;;;;;;;;5050757;28;20017;-64
2022/10/15 11:40:36;;;;;;;0.85;0.50;;;;;;;;;;5052916;28;20028;-64
2022/10/15 11:43:12;;;;;;;0.65;0.20;;;;;;;;;;5055066;28;20037;-64
2022/10/15 11:45:50;;;;;;;1.48;0.43;;;;;;;;;;5049031;28;20020;-64
2022/10/15 11:48:20;;;;;;;0.77;0.30;;;;;;;;;;5052634;28;20021;-65
2022/10/15 11:50:54;;;;;;;1.77;0.40;;;;;;;;;;5043731;28;20472;-63
2022/10/15 11:53:38;;;;;;;3.20;0.20;;;;;;;;;;5045068;28;20037;-65
2022/10/15 11:56:16;;;;;;;0.82;0.38;;;;;;;;;;5044025;28;20056;-64
2022/10/15 11:58:44;;;;;;;2.78;0.50;;;;;;;;;;5041555;28;20021;-64
2022/10/15 12:01:19;;;;;;;1.08;0.50;;;;;;;;;;5047694;28;20040;-64
2022/10/15 12:04:05;;;;;;;2.92;0.40;;;;;;;;;;5049907;28;20465;-64
2022/10/15 12:06:33;;;;;;;4.75;0.45;;;;;;;;;;5050053;28;20508;-65
2022/10/15 12:08:59;;;;;;;1.10;0.60;;;;;;;;;;5048328;28;20115;-65
2022/10/15 12:11:34;;;;;;;0.50;0.32;;;;;;;;;;5063291;28;20103;-65
2022/10/15 12:14:04;;;;;;;0.93;0.40;;;;;;;;;;5038260;28;20017;-65
2022/10/15 12:16:29;;;;;;;;;;;;;;;;;;5045879;28;20017;-64
2022/10/15 12:19:03;;;;;;;0.55;0.38;;;;;;;;;;5050421;28;19962;-64
2022/10/15 12:21:43;;;;;;;1.60;0.35;;;;;;;;;;5046179;28;20481;-64
2022/10/15 12:24:09;;;;;;;;;;;;;;;;;;5048025;28;20026;-65
2022/10/15 12:26:35;;;;;;;5.15;0.77;;;;;;;;;;5057586;28;19913;-65
2022/10/15 12:29:02;;;;;;;1.77;0.50;;;;;;;;;;5051956;28;20493;-64
2022/10/15 12:31:47;;;;;;;1.45;0.50;;;;;;;;;;5049998;28;20021;-64
2022/10/15 12:34:25;;;;;;;0.63;0.40;;;;;;;;;;5058333;28;20021;-65
2022/10/15 12:36:58;;;;;;;4.45;0.52;;;;;;;;;;5047205;28;20049;-64
2022/10/15 12:39:23;;;;;;;0.30;0.22;;;;;;;;;;5056904;28;20053;-64
2022/10/15 12:41:49;;;;;;;1.85;0.50;;;;;;;;;;5050094;28;20021;-64
2022/10/15 12:44:14;;;;;;;6.75;0.73;;;;;;;;;;5050582;28;20482;-65
2022/10/15 12:46:39;;;;;;;4.05;0.60;;;;;;;;;;5043363;28;20377;-65
2022/10/15 12:49:23;;;;;;;0.75;0.35;;;;;;;;;;5045247;28;20053;-65
2022/10/15 12:51:49;;;;;;;0.80;0.50;;;;;;;;;;5055753;28;20530;-65
2022/10/15 12:54:32;;;;;;;0.67;0.30;;;;;;;;;;5048133;28;20021;-65
2022/10/15 12:56:58;;;;;;;0.68;0.30;;;;;;;;;;5042701;28;20024;-65
2022/10/15 12:59:28;;;;;;;1.17;0.60;;;;;;;;;;5043827;28;20025;-65
2022/10/15 13:01:53;;;;;;;0.82;0.50;;;;;;;;;;5035435;28;20477;-65
2022/10/15 13:04:19;;;;;;;1.57;0.37;;;;;;;;;;5042794;28;20063;-65
2022/10/15 13:06:44;;;;;;;1.02;0.52;;;;;;;;;;5047704;28;20013;-64
2022/10/15 13:09:09;;;;;;;0.80;0.45;;;;;;;;;;5033601;28;20013;-64
2022/10/15 13:11:38;;;;;;;2.25;0.60;;;;;;;;;;5037440;28;20033;-64
2022/10/15 13:14:22;;;;;;;0.50;0.40;;;;;;;;;;5039714;28;20424;-65
2022/10/15 13:16:49;;;;;;;0.55;0.40;;;;;;;;;;5043824;28;20116;-65
2022/10/15 13:19:20;;;;;;;0.70;0.20;;;;;;;;;;5043440;28;20017;-65
2022/10/15 13:21:56;;;;;;;0.73;0.52;;;;;;;;;;5040022;28;20024;-65
2022/10/15 13:24:23;;;;;;;0.68;0.30;;;;;;;;;;5036366;28;20044;-64
2022/10/15 13:26:49;;;;;;;0.40;0.25;;;;;;;;;;5035977;28;20084;-66
2022/10/15 13:29:15;;;;;;;4.13;0.30;;;;;;;;;;5037109;28;20481;-65
2022/10/15 13:31:43;;;;;;;0.88;0.40;;;;;;;;;;5038312;28;20021;-65
2022/10/15 13:34:20;;;;;;;0.30;0.10;;;;;;;;;;5046466;28;20037;-64
2022/10/15 13:36:45;;;;;;;0.30;0.20;;;;;;;;;;5030621;28;20477;-65
2022/10/15 13:39:20;;;;;;;0.77;0.20;;;;;;;;;;5047292;28;20079;-65
2022/10/15 13:41:45;;;;;;;3.90;0.20;;;;;;;;;;5050489;28;20384;-65
2022/10/15 13:44:21;;;;;;;3.23;0.20;;;;;;;;;;5050272;28;20017;-65
2022/10/15 13:46:46;;;;;;;1.45;0.45;;;;;;;;;;5041202;28;20740;-65
2022/10/15 13:49:12;;;;;;;3.40;0.20;;;;;;;;;;5032123;28;20032;-65
2022/10/15 13:51:39;;;;;;;2.58;0.20;;;;;;;;;;5053155;28;20477;-65
2022/10/15 13:54:08;;;;;;;0.70;0.10;;;;;;;;;;5052969;28;20069;-65
2022/10/15 13:56:33;;;;;;;2.88;0.20;;;;;;;;;;5049614;28;20028;-65
2022/10/15 13:58:59;;;;;;;0.47;0.30;;;;;;;;;;5049276;28;20041;-65
2022/10/15 14:01:25;;;;;;;2.53;0.30;;;;;;;;;;5041903;28;20021;-65
2022/10/15 14:03:51;;;;;;;1.08;0.20;;;;;;;;;;5044972;28;20088;-65
2022/10/15 14:06:19;;;;;;;0.20;0.20;;;;;;;;;;5047242;28;20461;-65
2022/10/15 14:08:45;;;;;;;1.05;0.28;;;;;;;;;;5047793;28;20016;-65
2022/10/15 14:11:11;;;;;;;0.82;0.30;;;;;;;;;;5039532;28;20071;-65
2022/10/15 14:13:50;;;;;;;0.30;0.20;;;;;;;;;;5048932;28;20479;-65
2022/10/15 14:16:21;;;;;;;1.75;0.20;;;;;;;;;;5053998;28;20370;-65
2022/10/15 14:18:48;;;;;;;0.45;0.20;;;;;;;;;;5041293;28;20017;-65
2022/10/15 14:21:19;;;;;;;0.17;0.13;;;;;;;;;;5044922;28;20021;-66
2022/10/15 14:23:45;;;;;;;1.15;0.32;;;;;;;;;;5045052;28;20021;-66
2022/10/15 14:26:11;;;;;;;2.63;0.40;;;;;;;;;;5049497;28;20091;-66
2022/10/15 14:28:36;;;;;;;0.45;0.30;;;;;;;;;;5049067;28;20025;-65
2022/10/15 14:31:02;;;;;;;3.40;0.30;;;;;;;;;;5040713;28;20495;-66
2022/10/15 14:33:47;;;;;;;1.73;0.25;;;;;;;;;;5046381;28;20142;-66
2022/10/15 14:36:13;;;;;;;0.47;0.20;;;;;;;;;;5054242;28;20074;-65
2022/10/15 14:38:38;;;;;;;0.77;0.37;;;;;;;;;;5046815;28;20028;-65
2022/10/15 14:41:24;;;;;;;2.85;0.30;;;;;;;;;;5047496;28;20259;-65